sensor_id;sensor_type;location;lat;lon;timestamp;P1;durP1;ratioP1;P2;durP2;ratioP2
12816;SDS011;6473;51.552;6.716;2023-07-02T00:01:50;4.65;;;4.05;;
12816;SDS011;6473;51.552;6.716;2023-07-02T00:04:17;3.95;;;3.53;;
12816;SDS011;6473;51.552;6.716;2023-07-02T00:06:44;5.43;;;4.65;;
12816;SDS011;6473;51.552;6.716;2023-07-02T00:09:13;4.85;;;3.55;;
12816;SDS011;6473;51.552;6.716;2023-07-02T00:11:41;5.80;;;4.03;;
12816;SDS011;6473;51.552;6.716;2023-07-02T00:14:09;6.75;;;4.03;;
12816;SDS011;6473;51.552;6.716;2023-07-02T00:16:37;4.15;;;3.60;;
12816;SDS011;6473;51.552;6.716;2023-07-02T00:19:05;4.95;;;3.78;;
12816;SDS011;6473;51.552;6.716;2023-07-02T00:21:32;4.90;;;3.50;;
12816;SDS011;6473;51.552;6.716;2023-07-02T00:24:02;5.00;;;4.00;;
12816;SDS011;6473;51.552;6.716;2023-07-02T00:26:31;4.88;;;4.07;;
12816;SDS011;6473;51.552;6.716;2023-07-02T00:28:58;5.30;;;4.28;;
12816;SDS011;6473;51.552;6.716;2023-07-02T00:31:25;5.22;;;3.67;;
12816;SDS011;6473;51.552;6.716;2023-07-02T00:33:52;6.00;;;5.13;;
12816;SDS011;6473;51.552;6.716;2023-07-02T00:36:19;5.38;;;4.30;;
12816;SDS011;6473;51.552;6.716;2023-07-02T00:38:48;5.65;;;4.18;;
12816;SDS011;6473;51.552;6.716;2023-07-02T00:41:15;5.53;;;4.57;;
12816;SDS011;6473;51.552;6.716;2023-07-02T00:43:44;6.88;;;4.28;;
12816;SDS011;6473;51.552;6.716;2023-07-02T00:46:11;6.22;;;4.07;;
12816;SDS011;6473;51.552;6.716;2023-07-02T00:48:43;4.57;;;4.15;;
12816;SDS011;6473;51.552;6.716;2023-07-02T00:51:10;4.85;;;3.88;;
12816;SDS011;6473;51.552;6.716;2023-07-02T00:53:39;5.57;;;4.28;;
12816;SDS011;6473;51.552;6.716;2023-07-02T00:56:06;6.97;;;4.05;;
12816;SDS011;6473;51.552;6.716;2023-07-02T00:58:33;5.80;;;4.40;;
12816;SDS011;6473;51.552;6.716;2023-07-02T01:01:05;6.45;;;4.25;;
12816;SDS011;6473;51.552;6.716;2023-07-02T01:03:32;4.15;;;3.75;;
12816;SDS011;6473;51.552;6.716;2023-07-02T01:06:02;5.13;;;4.13;;
12816;SDS011;6473;51.552;6.716;2023-07-02T01:08:29;6.43;;;4.57;;
12816;SDS011;6473;51.552;6.716;2023-07-02T01:10:56;7.22;;;4.20;;
12816;SDS011;6473;51.552;6.716;2023-07-02T01:13:25;7.05;;;4.22;;
12816;SDS011;6473;51.552;6.716;2023-07-02T01:15:53;6.30;;;4.40;;
12816;SDS011;6473;51.552;6.716;2023-07-02T01:18:22;10.50;;;3.92;;
12816;SDS011;6473;51.552;6.716;2023-07-02T01:20:50;5.78;;;4.30;;
12816;SDS011;6473;51.552;6.716;2023-07-02T01:23:20;5.45;;;4.28;;
12816;SDS011;6473;51.552;6.716;2023-07-02T01:25:47;5.13;;;4.25;;
12816;SDS011;6473;51.552;6.716;2023-07-02T01:28:17;6.18;;;4.38;;
12816;SDS011;6473;51.552;6.716;2023-07-02T01:30:44;5.88;;;4.47;;
12816;SDS011;6473;51.552;6.716;2023-07-02T01:33:11;7.43;;;4.15;;
12816;SDS011;6473;51.552;6.716;2023-07-02T01:35:37;6.35;;;4.10;;
12816;SDS011;6473;51.552;6.716;2023-07-02T01:38:05;6.20;;;4.00;;
12816;SDS011;6473;51.552;6.716;2023-07-02T01:40:32;8.48;;;4.57;;
12816;SDS011;6473;51.552;6.716;2023-07-02T01:42:59;5.93;;;4.50;;
12816;SDS011;6473;51.552;6.716;2023-07-02T01:45:26;6.85;;;4.55;;
12816;SDS011;6473;51.552;6.716;2023-07-02T01:47:53;6.93;;;4.63;;
12816;SDS011;6473;51.552;6.716;2023-07-02T01:50:20;7.35;;;4.78;;
12816;SDS011;6473;51.552;6.716;2023-07-02T01:52:47;6.10;;;4.70;;
12816;SDS011;6473;51.552;6.716;2023-07-02T01:55:15;7.95;;;4.95;;
12816;SDS011;6473;51.552;6.716;2023-07-02T01:57:42;10.48;;;5.35;;
12816;SDS011;6473;51.552;6.716;2023-07-02T02:00:10;6.57;;;4.82;;
12816;SDS011;6473;51.552;6.716;2023-07-02T02:02:40;7.47;;;5.07;;
12816;SDS011;6473;51.552;6.716;2023-07-02T02:05:08;10.43;;;5.00;;
12816;SDS011;6473;51.552;6.716;2023-07-02T02:07:35;11.27;;;5.68;;
12816;SDS011;6473;51.552;6.716;2023-07-02T02:10:02;9.88;;;5.43;;
12816;SDS011;6473;51.552;6.716;2023-07-02T02:12:30;9.02;;;5.75;;
12816;SDS011;6473;51.552;6.716;2023-07-02T02:14:57;11.27;;;6.25;;
12816;SDS011;6473;51.552;6.716;2023-07-02T02:17:24;8.95;;;5.78;;
12816;SDS011;6473;51.552;6.716;2023-07-02T02:19:51;10.10;;;6.40;;
12816;SDS011;6473;51.552;6.716;2023-07-02T02:22:17;9.88;;;5.80;;
12816;SDS011;6473;51.552;6.716;2023-07-02T02:24:44;10.65;;;6.10;;
12816;SDS011;6473;51.552;6.716;2023-07-02T02:27:11;12.80;;;6.45;;
12816;SDS011;6473;51.552;6.716;2023-07-02T02:29:39;10.43;;;6.60;;
12816;SDS011;6473;51.552;6.716;2023-07-02T02:32:07;13.23;;;6.63;;
12816;SDS011;6473;51.552;6.716;2023-07-02T02:34:34;8.95;;;5.97;;
12816;SDS011;6473;51.552;6.716;2023-07-02T02:37:01;11.93;;;7.30;;
12816;SDS011;6473;51.552;6.716;2023-07-02T02:39:29;10.75;;;7.05;;
12816;SDS011;6473;51.552;6.716;2023-07-02T02:41:55;10.57;;;7.00;;
12816;SDS011;6473;51.552;6.716;2023-07-02T02:44:22;10.30;;;7.05;;
12816;SDS011;6473;51.552;6.716;2023-07-02T02:46:51;12.98;;;7.03;;
12816;SDS011;6473;51.552;6.716;2023-07-02T02:49:17;10.02;;;7.07;;
12816;SDS011;6473;51.552;6.716;2023-07-02T02:51:44;13.40;;;7.15;;
12816;SDS011;6473;51.552;6.716;2023-07-02T02:54:11;14.00;;;7.40;;
12816;SDS011;6473;51.552;6.716;2023-07-02T02:56:38;11.88;;;7.55;;
12816;SDS011;6473;51.552;6.716;2023-07-02T02:59:05;11.93;;;7.57;;
12816;SDS011;6473;51.552;6.716;2023-07-02T03:01:31;11.07;;;7.13;;
12816;SDS011;6473;51.552;6.716;2023-07-02T03:04:00;13.88;;;7.78;;
12816;SDS011;6473;51.552;6.716;2023-07-02T03:06:26;13.88;;;7.05;;
12816;SDS011;6473;51.552;6.716;2023-07-02T03:08:53;15.70;;;7.28;;
12816;SDS011;6473;51.552;6.716;2023-07-02T03:11:20;11.85;;;7.63;;
12816;SDS011;6473;51.552;6.716;2023-07-02T03:13:47;11.50;;;7.13;;
12816;SDS011;6473;51.552;6.716;2023-07-02T03:16:14;12.95;;;7.72;;
12816;SDS011;6473;51.552;6.716;2023-07-02T03:18:41;13.40;;;7.75;;
12816;SDS011;6473;51.552;6.716;2023-07-02T03:21:09;13.07;;;7.70;;
12816;SDS011;6473;51.552;6.716;2023-07-02T03:23:36;12.30;;;7.35;;
12816;SDS011;6473;51.552;6.716;2023-07-02T03:26:03;13.20;;;7.63;;
12816;SDS011;6473;51.552;6.716;2023-07-02T03:28:29;12.35;;;7.88;;
12816;SDS011;6473;51.552;6.716;2023-07-02T03:30:56;14.38;;;7.85;;
12816;SDS011;6473;51.552;6.716;2023-07-02T03:33:23;14.23;;;8.50;;
12816;SDS011;6473;51.552;6.716;2023-07-02T03:35:50;12.02;;;8.02;;
12816;SDS011;6473;51.552;6.716;2023-07-02T03:38:18;13.85;;;8.13;;
12816;SDS011;6473;51.552;6.716;2023-07-02T03:40:45;12.10;;;8.40;;
12816;SDS011;6473;51.552;6.716;2023-07-02T03:43:12;14.50;;;7.90;;
12816;SDS011;6473;51.552;6.716;2023-07-02T03:45:38;14.27;;;8.55;;
12816;SDS011;6473;51.552;6.716;2023-07-02T03:48:05;14.82;;;8.27;;
12816;SDS011;6473;51.552;6.716;2023-07-02T03:50:32;14.95;;;8.20;;
12816;SDS011;6473;51.552;6.716;2023-07-02T03:52:59;12.13;;;8.85;;
12816;SDS011;6473;51.552;6.716;2023-07-02T03:55:27;15.07;;;9.32;;
12816;SDS011;6473;51.552;6.716;2023-07-02T03:57:54;16.40;;;9.27;;
12816;SDS011;6473;51.552;6.716;2023-07-02T04:00:20;14.88;;;9.27;;
12816;SDS011;6473;51.552;6.716;2023-07-02T04:02:47;16.38;;;9.45;;
12816;SDS011;6473;51.552;6.716;2023-07-02T04:05:14;12.57;;;9.10;;
12816;SDS011;6473;51.552;6.716;2023-07-02T04:07:41;16.67;;;9.38;;
12816;SDS011;6473;51.552;6.716;2023-07-02T04:10:08;15.73;;;9.98;;
12816;SDS011;6473;51.552;6.716;2023-07-02T04:12:36;18.55;;;10.30;;
12816;SDS011;6473;51.552;6.716;2023-07-02T04:15:03;19.58;;;10.27;;
12816;SDS011;6473;51.552;6.716;2023-07-02T04:17:31;17.77;;;9.98;;
12816;SDS011;6473;51.552;6.716;2023-07-02T04:19:59;17.38;;;9.52;;
12816;SDS011;6473;51.552;6.716;2023-07-02T04:22:28;18.27;;;10.25;;
12816;SDS011;6473;51.552;6.716;2023-07-02T04:24:55;13.45;;;9.30;;
12816;SDS011;6473;51.552;6.716;2023-07-02T04:27:22;15.52;;;9.35;;
12816;SDS011;6473;51.552;6.716;2023-07-02T04:29:50;15.80;;;9.75;;
12816;SDS011;6473;51.552;6.716;2023-07-02T04:32:17;17.75;;;11.00;;
12816;SDS011;6473;51.552;6.716;2023-07-02T04:34:44;19.83;;;10.77;;
12816;SDS011;6473;51.552;6.716;2023-07-02T04:37:10;17.52;;;9.73;;
12816;SDS011;6473;51.552;6.716;2023-07-02T04:39:37;14.40;;;10.15;;
12816;SDS011;6473;51.552;6.716;2023-07-02T04:42:05;20.17;;;11.80;;
12816;SDS011;6473;51.552;6.716;2023-07-02T04:44:32;16.77;;;10.63;;
12816;SDS011;6473;51.552;6.716;2023-07-02T04:47:00;19.30;;;10.38;;
12816;SDS011;6473;51.552;6.716;2023-07-02T04:49:27;19.15;;;10.80;;
12816;SDS011;6473;51.552;6.716;2023-07-02T04:51:54;18.95;;;11.65;;
12816;SDS011;6473;51.552;6.716;2023-07-02T04:54:21;17.15;;;10.45;;
12816;SDS011;6473;51.552;6.716;2023-07-02T04:56:48;19.08;;;11.35;;
12816;SDS011;6473;51.552;6.716;2023-07-02T04:59:15;18.80;;;11.13;;
12816;SDS011;6473;51.552;6.716;2023-07-02T05:01:42;18.05;;;10.25;;
12816;SDS011;6473;51.552;6.716;2023-07-02T05:04:11;18.58;;;10.23;;
12816;SDS011;6473;51.552;6.716;2023-07-02T05:06:38;18.55;;;9.93;;
12816;SDS011;6473;51.552;6.716;2023-07-02T05:09:05;17.58;;;10.80;;
12816;SDS011;6473;51.552;6.716;2023-07-02T05:11:32;17.95;;;10.35;;
12816;SDS011;6473;51.552;6.716;2023-07-02T05:13:59;19.23;;;10.40;;
12816;SDS011;6473;51.552;6.716;2023-07-02T05:16:26;20.92;;;12.00;;
12816;SDS011;6473;51.552;6.716;2023-07-02T05:18:53;17.15;;;10.40;;
12816;SDS011;6473;51.552;6.716;2023-07-02T05:21:21;16.73;;;11.10;;
12816;SDS011;6473;51.552;6.716;2023-07-02T05:23:48;18.35;;;10.93;;
12816;SDS011;6473;51.552;6.716;2023-07-02T05:26:15;18.27;;;10.98;;
12816;SDS011;6473;51.552;6.716;2023-07-02T05:28:42;19.88;;;10.95;;
12816;SDS011;6473;51.552;6.716;2023-07-02T05:31:10;17.08;;;10.68;;
12816;SDS011;6473;51.552;6.716;2023-07-02T05:33:38;16.58;;;10.23;;
12816;SDS011;6473;51.552;6.716;2023-07-02T05:36:05;20.33;;;11.15;;
12816;SDS011;6473;51.552;6.716;2023-07-02T05:38:33;20.48;;;11.05;;
12816;SDS011;6473;51.552;6.716;2023-07-02T05:41:01;18.55;;;11.25;;
12816;SDS011;6473;51.552;6.716;2023-07-02T05:43:28;18.38;;;10.30;;
12816;SDS011;6473;51.552;6.716;2023-07-02T05:45:57;17.45;;;10.98;;
12816;SDS011;6473;51.552;6.716;2023-07-02T05:48:25;15.00;;;10.00;;
12816;SDS011;6473;51.552;6.716;2023-07-02T05:50:52;19.00;;;10.75;;
12816;SDS011;6473;51.552;6.716;2023-07-02T05:53:19;14.98;;;9.57;;
12816;SDS011;6473;51.552;6.716;2023-07-02T05:55:47;15.70;;;9.40;;
12816;SDS011;6473;51.552;6.716;2023-07-02T05:58:14;15.63;;;9.30;;
12816;SDS011;6473;51.552;6.716;2023-07-02T06:00:41;17.15;;;9.18;;
12816;SDS011;6473;51.552;6.716;2023-07-02T06:03:14;15.88;;;9.02;;
12816;SDS011;6473;51.552;6.716;2023-07-02T06:05:45;12.65;;;8.07;;
12816;SDS011;6473;51.552;6.716;2023-07-02T06:08:13;14.50;;;8.65;;
12816;SDS011;6473;51.552;6.716;2023-07-02T06:10:41;13.93;;;9.30;;
12816;SDS011;6473;51.552;6.716;2023-07-02T06:13:09;15.32;;;8.20;;
12816;SDS011;6473;51.552;6.716;2023-07-02T06:15:36;14.70;;;8.75;;
12816;SDS011;6473;51.552;6.716;2023-07-02T06:18:03;15.75;;;7.80;;
12816;SDS011;6473;51.552;6.716;2023-07-02T06:20:30;13.00;;;8.02;;
12816;SDS011;6473;51.552;6.716;2023-07-02T06:22:56;12.13;;;8.00;;
12816;SDS011;6473;51.552;6.716;2023-07-02T06:25:23;16.38;;;8.95;;
12816;SDS011;6473;51.552;6.716;2023-07-02T06:27:50;13.52;;;8.38;;
12816;SDS011;6473;51.552;6.716;2023-07-02T06:30:21;13.95;;;8.27;;
12816;SDS011;6473;51.552;6.716;2023-07-02T06:32:48;13.63;;;8.10;;
12816;SDS011;6473;51.552;6.716;2023-07-02T06:35:14;15.35;;;8.48;;
12816;SDS011;6473;51.552;6.716;2023-07-02T06:37:41;18.33;;;9.05;;
12816;SDS011;6473;51.552;6.716;2023-07-02T06:40:09;14.30;;;8.00;;
12816;SDS011;6473;51.552;6.716;2023-07-02T06:42:36;11.93;;;8.10;;
12816;SDS011;6473;51.552;6.716;2023-07-02T06:45:03;16.30;;;8.32;;
12816;SDS011;6473;51.552;6.716;2023-07-02T06:47:32;15.27;;;8.13;;
12816;SDS011;6473;51.552;6.716;2023-07-02T06:49:59;12.38;;;7.75;;
12816;SDS011;6473;51.552;6.716;2023-07-02T06:52:26;15.68;;;7.82;;
12816;SDS011;6473;51.552;6.716;2023-07-02T06:54:53;13.18;;;8.32;;
12816;SDS011;6473;51.552;6.716;2023-07-02T06:57:19;12.10;;;7.05;;
12816;SDS011;6473;51.552;6.716;2023-07-02T06:59:46;12.50;;;6.70;;
12816;SDS011;6473;51.552;6.716;2023-07-02T07:02:13;12.27;;;7.07;;
12816;SDS011;6473;51.552;6.716;2023-07-02T07:04:41;13.70;;;7.30;;
12816;SDS011;6473;51.552;6.716;2023-07-02T07:07:08;12.05;;;6.95;;
12816;SDS011;6473;51.552;6.716;2023-07-02T07:09:35;12.35;;;7.22;;
12816;SDS011;6473;51.552;6.716;2023-07-02T07:12:02;13.75;;;7.50;;
12816;SDS011;6473;51.552;6.716;2023-07-02T07:14:29;15.13;;;8.18;;
12816;SDS011;6473;51.552;6.716;2023-07-02T07:16:56;13.48;;;7.75;;
12816;SDS011;6473;51.552;6.716;2023-07-02T07:19:23;14.00;;;7.28;;
12816;SDS011;6473;51.552;6.716;2023-07-02T07:21:51;13.57;;;7.38;;
12816;SDS011;6473;51.552;6.716;2023-07-02T07:24:17;11.52;;;7.25;;
12816;SDS011;6473;51.552;6.716;2023-07-02T07:26:44;13.20;;;6.88;;
12816;SDS011;6473;51.552;6.716;2023-07-02T07:29:12;12.30;;;7.07;;
12816;SDS011;6473;51.552;6.716;2023-07-02T07:31:39;12.93;;;7.07;;
12816;SDS011;6473;51.552;6.716;2023-07-02T07:34:06;12.32;;;7.80;;
12816;SDS011;6473;51.552;6.716;2023-07-02T07:36:33;10.23;;;6.88;;
12816;SDS011;6473;51.552;6.716;2023-07-02T07:39:01;14.27;;;7.90;;
12816;SDS011;6473;51.552;6.716;2023-07-02T07:41:28;18.60;;;7.53;;
12816;SDS011;6473;51.552;6.716;2023-07-02T07:43:55;10.95;;;7.30;;
12816;SDS011;6473;51.552;6.716;2023-07-02T07:46:21;14.50;;;7.35;;
12816;SDS011;6473;51.552;6.716;2023-07-02T07:48:48;10.32;;;6.40;;
12816;SDS011;6473;51.552;6.716;2023-07-02T07:51:15;12.82;;;6.97;;
12816;SDS011;6473;51.552;6.716;2023-07-02T07:53:42;11.45;;;6.70;;
12816;SDS011;6473;51.552;6.716;2023-07-02T07:56:10;13.65;;;7.20;;
12816;SDS011;6473;51.552;6.716;2023-07-02T07:58:37;12.70;;;6.28;;
12816;SDS011;6473;51.552;6.716;2023-07-02T08:01:04;11.80;;;6.25;;
12816;SDS011;6473;51.552;6.716;2023-07-02T08:03:31;9.98;;;6.35;;
12816;SDS011;6473;51.552;6.716;2023-07-02T08:05:58;10.38;;;5.97;;
12816;SDS011;6473;51.552;6.716;2023-07-02T08:08:25;10.23;;;5.72;;
12816;SDS011;6473;51.552;6.716;2023-07-02T08:10:51;9.88;;;5.93;;
12816;SDS011;6473;51.552;6.716;2023-07-02T08:13:20;10.10;;;5.40;;
12816;SDS011;6473;51.552;6.716;2023-07-02T08:15:46;10.27;;;5.55;;
12816;SDS011;6473;51.552;6.716;2023-07-02T08:18:13;10.68;;;5.35;;
12816;SDS011;6473;51.552;6.716;2023-07-02T08:20:40;11.13;;;5.40;;
12816;SDS011;6473;51.552;6.716;2023-07-02T08:23:07;12.57;;;5.63;;
12816;SDS011;6473;51.552;6.716;2023-07-02T08:25:34;9.85;;;5.57;;
12816;SDS011;6473;51.552;6.716;2023-07-02T08:28:00;8.50;;;4.97;;
12816;SDS011;6473;51.552;6.716;2023-07-02T08:30:29;8.43;;;4.90;;
12816;SDS011;6473;51.552;6.716;2023-07-02T08:32:55;7.85;;;4.70;;
12816;SDS011;6473;51.552;6.716;2023-07-02T08:35:22;10.02;;;4.88;;
12816;SDS011;6473;51.552;6.716;2023-07-02T08:37:49;9.88;;;4.90;;
12816;SDS011;6473;51.552;6.716;2023-07-02T08:40:16;8.70;;;4.72;;
12816;SDS011;6473;51.552;6.716;2023-07-02T08:42:44;10.07;;;5.10;;
12816;SDS011;6473;51.552;6.716;2023-07-02T08:45:12;8.30;;;4.57;;
12816;SDS011;6473;51.552;6.716;2023-07-02T08:47:42;8.18;;;5.18;;
12816;SDS011;6473;51.552;6.716;2023-07-02T08:50:10;8.85;;;5.22;;
12816;SDS011;6473;51.552;6.716;2023-07-02T08:52:38;7.40;;;4.63;;
12816;SDS011;6473;51.552;6.716;2023-07-02T08:55:05;7.65;;;4.75;;
12816;SDS011;6473;51.552;6.716;2023-07-02T08:57:32;8.23;;;4.75;;
12816;SDS011;6473;51.552;6.716;2023-07-02T09:00:03;9.82;;;4.68;;
12816;SDS011;6473;51.552;6.716;2023-07-02T09:02:32;10.23;;;5.30;;
12816;SDS011;6473;51.552;6.716;2023-07-02T09:05:01;8.63;;;5.00;;
12816;SDS011;6473;51.552;6.716;2023-07-02T09:07:28;8.10;;;5.18;;
12816;SDS011;6473;51.552;6.716;2023-07-02T09:09:55;8.32;;;5.10;;
12816;SDS011;6473;51.552;6.716;2023-07-02T09:12:22;7.30;;;4.90;;
12816;SDS011;6473;51.552;6.716;2023-07-02T09:14:54;7.53;;;5.07;;
12816;SDS011;6473;51.552;6.716;2023-07-02T09:17:26;6.95;;;4.60;;
12816;SDS011;6473;51.552;6.716;2023-07-02T09:19:54;8.18;;;5.30;;
12816;SDS011;6473;51.552;6.716;2023-07-02T09:22:23;7.72;;;4.63;;
12816;SDS011;6473;51.552;6.716;2023-07-02T09:24:54;8.73;;;4.57;;
12816;SDS011;6473;51.552;6.716;2023-07-02T09:27:32;6.63;;;4.68;;
12816;SDS011;6473;51.552;6.716;2023-07-02T09:30:05;9.18;;;4.45;;
12816;SDS011;6473;51.552;6.716;2023-07-02T09:32:33;7.07;;;4.97;;
12816;SDS011;6473;51.552;6.716;2023-07-02T09:35:00;10.45;;;5.00;;
12816;SDS011;6473;51.552;6.716;2023-07-02T09:37:29;9.77;;;4.70;;
12816;SDS011;6473;51.552;6.716;2023-07-02T09:39:56;8.70;;;4.70;;
12816;SDS011;6473;51.552;6.716;2023-07-02T09:42:24;7.65;;;4.40;;
12816;SDS011;6473;51.552;6.716;2023-07-02T09:44:52;8.75;;;4.60;;
12816;SDS011;6473;51.552;6.716;2023-07-02T09:47:21;6.80;;;4.68;;
12816;SDS011;6473;51.552;6.716;2023-07-02T09:49:49;6.50;;;4.75;;
12816;SDS011;6473;51.552;6.716;2023-07-02T09:52:20;5.50;;;3.95;;
12816;SDS011;6473;51.552;6.716;2023-07-02T09:54:49;9.05;;;5.03;;
12816;SDS011;6473;51.552;6.716;2023-07-02T09:57:16;8.63;;;4.90;;
12816;SDS011;6473;51.552;6.716;2023-07-02T09:59:42;10.88;;;5.07;;
12816;SDS011;6473;51.552;6.716;2023-07-02T10:02:09;8.27;;;4.80;;
12816;SDS011;6473;51.552;6.716;2023-07-02T10:04:41;11.65;;;4.55;;
12816;SDS011;6473;51.552;6.716;2023-07-02T10:07:09;7.88;;;5.30;;
12816;SDS011;6473;51.552;6.716;2023-07-02T10:09:36;7.35;;;4.35;;
12816;SDS011;6473;51.552;6.716;2023-07-02T10:12:18;7.70;;;5.28;;
12816;SDS011;6473;51.552;6.716;2023-07-02T10:14:46;8.77;;;4.90;;
12816;SDS011;6473;51.552;6.716;2023-07-02T10:17:24;9.10;;;4.63;;
12816;SDS011;6473;51.552;6.716;2023-07-02T10:19:56;6.47;;;4.65;;
12816;SDS011;6473;51.552;6.716;2023-07-02T10:22:24;9.50;;;4.95;;
12816;SDS011;6473;51.552;6.716;2023-07-02T10:24:52;6.30;;;4.47;;
12816;SDS011;6473;51.552;6.716;2023-07-02T10:27:20;10.20;;;4.82;;
12816;SDS011;6473;51.552;6.716;2023-07-02T10:29:58;8.75;;;4.60;;
12816;SDS011;6473;51.552;6.716;2023-07-02T10:32:26;7.68;;;4.30;;
12816;SDS011;6473;51.552;6.716;2023-07-02T10:34:54;6.50;;;4.53;;
12816;SDS011;6473;51.552;6.716;2023-07-02T10:37:21;8.32;;;4.65;;
12816;SDS011;6473;51.552;6.716;2023-07-02T10:39:48;6.43;;;4.63;;
12816;SDS011;6473;51.552;6.716;2023-07-02T10:42:17;5.57;;;4.55;;
12816;SDS011;6473;51.552;6.716;2023-07-02T10:44:49;6.80;;;4.93;;
12816;SDS011;6473;51.552;6.716;2023-07-02T10:47:16;7.97;;;4.90;;
12816;SDS011;6473;51.552;6.716;2023-07-02T10:49:43;9.38;;;5.07;;
12816;SDS011;6473;51.552;6.716;2023-07-02T10:52:10;7.82;;;4.50;;
12816;SDS011;6473;51.552;6.716;2023-07-02T10:54:40;9.32;;;4.53;;
12816;SDS011;6473;51.552;6.716;2023-07-02T10:57:10;7.35;;;4.28;;
12816;SDS011;6473;51.552;6.716;2023-07-02T10:59:39;8.15;;;4.47;;
12816;SDS011;6473;51.552;6.716;2023-07-02T11:02:07;7.40;;;4.60;;
12816;SDS011;6473;51.552;6.716;2023-07-02T11:04:35;7.32;;;4.45;;
12816;SDS011;6473;51.552;6.716;2023-07-02T11:07:03;6.72;;;4.55;;
12816;SDS011;6473;51.552;6.716;2023-07-02T11:09:31;6.20;;;4.32;;
12816;SDS011;6473;51.552;6.716;2023-07-02T11:11:58;6.78;;;3.90;;
12816;SDS011;6473;51.552;6.716;2023-07-02T11:14:26;7.03;;;4.25;;
12816;SDS011;6473;51.552;6.716;2023-07-02T11:16:54;7.57;;;4.57;;
12816;SDS011;6473;51.552;6.716;2023-07-02T11:19:23;5.03;;;3.90;;
12816;SDS011;6473;51.552;6.716;2023-07-02T11:21:50;6.88;;;4.32;;
12816;SDS011;6473;51.552;6.716;2023-07-02T11:24:26;6.30;;;4.28;;
12816;SDS011;6473;51.552;6.716;2023-07-02T11:26:54;6.68;;;4.30;;
12816;SDS011;6473;51.552;6.716;2023-07-02T11:29:21;10.25;;;4.53;;
12816;SDS011;6473;51.552;6.716;2023-07-02T11:31:48;10.18;;;4.47;;
12816;SDS011;6473;51.552;6.716;2023-07-02T11:34:15;6.38;;;4.03;;
12816;SDS011;6473;51.552;6.716;2023-07-02T11:36:45;7.93;;;4.32;;
12816;SDS011;6473;51.552;6.716;2023-07-02T11:39:12;7.68;;;4.50;;
12816;SDS011;6473;51.552;6.716;2023-07-02T11:41:40;7.38;;;4.72;;
12816;SDS011;6473;51.552;6.716;2023-07-02T11:44:09;8.68;;;5.03;;
12816;SDS011;6473;51.552;6.716;2023-07-02T11:46:36;6.90;;;4.45;;
12816;SDS011;6473;51.552;6.716;2023-07-02T11:49:03;6.35;;;4.28;;
12816;SDS011;6473;51.552;6.716;2023-07-02T11:51:33;8.32;;;4.50;;
12816;SDS011;6473;51.552;6.716;2023-07-02T11:54:01;8.43;;;4.65;;
12816;SDS011;6473;51.552;6.716;2023-07-02T11:56:28;7.55;;;4.80;;
12816;SDS011;6473;51.552;6.716;2023-07-02T11:58:55;5.70;;;4.40;;
12816;SDS011;6473;51.552;6.716;2023-07-02T12:01:22;6.80;;;4.63;;
12816;SDS011;6473;51.552;6.716;2023-07-02T12:03:49;6.30;;;4.75;;
12816;SDS011;6473;51.552;6.716;2023-07-02T12:06:17;8.30;;;4.60;;
12816;SDS011;6473;51.552;6.716;2023-07-02T12:08:43;7.10;;;4.50;;
12816;SDS011;6473;51.552;6.716;2023-07-02T12:11:12;6.63;;;4.63;;
12816;SDS011;6473;51.552;6.716;2023-07-02T12:13:41;7.18;;;4.55;;
12816;SDS011;6473;51.552;6.716;2023-07-02T12:16:08;7.22;;;4.75;;
12816;SDS011;6473;51.552;6.716;2023-07-02T12:18:35;6.32;;;4.50;;
12816;SDS011;6473;51.552;6.716;2023-07-02T12:21:02;7.28;;;4.68;;
12816;SDS011;6473;51.552;6.716;2023-07-02T12:23:29;7.43;;;4.60;;
12816;SDS011;6473;51.552;6.716;2023-07-02T12:25:55;7.75;;;4.72;;
12816;SDS011;6473;51.552;6.716;2023-07-02T12:28:24;7.57;;;4.63;;
12816;SDS011;6473;51.552;6.716;2023-07-02T12:30:51;7.05;;;4.45;;
12816;SDS011;6473;51.552;6.716;2023-07-02T12:33:18;6.53;;;4.68;;
12816;SDS011;6473;51.552;6.716;2023-07-02T12:35:45;7.57;;;4.88;;
12816;SDS011;6473;51.552;6.716;2023-07-02T12:38:12;6.35;;;4.60;;
12816;SDS011;6473;51.552;6.716;2023-07-02T12:40:39;6.43;;;4.55;;
12816;SDS011;6473;51.552;6.716;2023-07-02T12:43:06;7.47;;;4.95;;
12816;SDS011;6473;51.552;6.716;2023-07-02T12:45:35;11.55;;;5.43;;
12816;SDS011;6473;51.552;6.716;2023-07-02T12:48:03;7.85;;;4.75;;
12816;SDS011;6473;51.552;6.716;2023-07-02T12:50:30;9.10;;;5.45;;
12816;SDS011;6473;51.552;6.716;2023-07-02T12:52:57;8.38;;;5.10;;
12816;SDS011;6473;51.552;6.716;2023-07-02T12:55:24;7.82;;;4.72;;
12816;SDS011;6473;51.552;6.716;2023-07-02T12:57:51;6.95;;;4.40;;
12816;SDS011;6473;51.552;6.716;2023-07-02T13:00:18;10.73;;;5.38;;
12816;SDS011;6473;51.552;6.716;2023-07-02T13:02:48;9.25;;;5.03;;
12816;SDS011;6473;51.552;6.716;2023-07-02T13:05:15;7.63;;;5.20;;
12816;SDS011;6473;51.552;6.716;2023-07-02T13:07:42;10.20;;;6.00;;
12816;SDS011;6473;51.552;6.716;2023-07-02T13:10:09;9.98;;;5.90;;
12816;SDS011;6473;51.552;6.716;2023-07-02T13:12:37;6.70;;;5.07;;
12816;SDS011;6473;51.552;6.716;2023-07-02T13:15:04;9.00;;;5.40;;
12816;SDS011;6473;51.552;6.716;2023-07-02T13:17:31;9.05;;;5.60;;
12816;SDS011;6473;51.552;6.716;2023-07-02T13:20:00;9.07;;;5.43;;
12816;SDS011;6473;51.552;6.716;2023-07-02T13:22:27;9.73;;;5.80;;
12816;SDS011;6473;51.552;6.716;2023-07-02T13:24:55;9.48;;;6.07;;
12816;SDS011;6473;51.552;6.716;2023-07-02T13:27:23;9.00;;;6.25;;
12816;SDS011;6473;51.552;6.716;2023-07-02T13:29:50;11.35;;;5.72;;
12816;SDS011;6473;51.552;6.716;2023-07-02T13:32:17;9.45;;;5.80;;
12816;SDS011;6473;51.552;6.716;2023-07-02T13:34:44;9.98;;;5.95;;
12816;SDS011;6473;51.552;6.716;2023-07-02T13:37:13;10.30;;;6.22;;
12816;SDS011;6473;51.552;6.716;2023-07-02T13:39:43;8.07;;;5.65;;
12816;SDS011;6473;51.552;6.716;2023-07-02T13:42:10;8.23;;;5.32;;
12816;SDS011;6473;51.552;6.716;2023-07-02T13:44:37;10.77;;;6.15;;
12816;SDS011;6473;51.552;6.716;2023-07-02T13:47:04;9.23;;;5.80;;
12816;SDS011;6473;51.552;6.716;2023-07-02T13:49:32;9.20;;;5.80;;
12816;SDS011;6473;51.552;6.716;2023-07-02T13:51:59;8.13;;;5.55;;
12816;SDS011;6473;51.552;6.716;2023-07-02T13:54:28;9.80;;;6.25;;
12816;SDS011;6473;51.552;6.716;2023-07-02T13:56:56;11.13;;;5.80;;
12816;SDS011;6473;51.552;6.716;2023-07-02T13:59:25;10.20;;;5.45;;
12816;SDS011;6473;51.552;6.716;2023-07-02T14:01:53;9.65;;;6.07;;
12816;SDS011;6473;51.552;6.716;2023-07-02T14:04:20;9.63;;;6.07;;
12816;SDS011;6473;51.552;6.716;2023-07-02T14:06:47;8.43;;;5.88;;
12816;SDS011;6473;51.552;6.716;2023-07-02T14:09:14;10.18;;;6.15;;
12816;SDS011;6473;51.552;6.716;2023-07-02T14:11:41;10.40;;;5.95;;
12816;SDS011;6473;51.552;6.716;2023-07-02T14:14:09;8.98;;;5.82;;
12816;SDS011;6473;51.552;6.716;2023-07-02T14:16:37;11.77;;;6.72;;
12816;SDS011;6473;51.552;6.716;2023-07-02T14:19:04;9.75;;;6.00;;
12816;SDS011;6473;51.552;6.716;2023-07-02T14:21:32;12.77;;;6.35;;
12816;SDS011;6473;51.552;6.716;2023-07-02T14:23:59;9.90;;;5.97;;
12816;SDS011;6473;51.552;6.716;2023-07-02T14:26:26;11.80;;;6.13;;
12816;SDS011;6473;51.552;6.716;2023-07-02T14:28:54;10.25;;;6.10;;
12816;SDS011;6473;51.552;6.716;2023-07-02T14:31:23;9.55;;;5.88;;
12816;SDS011;6473;51.552;6.716;2023-07-02T14:33:51;10.43;;;6.15;;
12816;SDS011;6473;51.552;6.716;2023-07-02T14:36:18;9.23;;;6.05;;
12816;SDS011;6473;51.552;6.716;2023-07-02T14:38:46;10.48;;;5.10;;
12816;SDS011;6473;51.552;6.716;2023-07-02T14:41:13;8.60;;;5.47;;
12816;SDS011;6473;51.552;6.716;2023-07-02T14:43:40;8.18;;;5.60;;
12816;SDS011;6473;51.552;6.716;2023-07-02T14:46:07;11.57;;;5.50;;
12816;SDS011;6473;51.552;6.716;2023-07-02T14:48:34;10.07;;;5.70;;
12816;SDS011;6473;51.552;6.716;2023-07-02T14:51:03;8.25;;;5.28;;
12816;SDS011;6473;51.552;6.716;2023-07-02T14:53:31;11.07;;;5.18;;
12816;SDS011;6473;51.552;6.716;2023-07-02T14:55:59;10.20;;;5.30;;